sensor_id;sensor_type;location;lat;lon;timestamp;P1;durP1;ratioP1;P2;durP2;ratioP2
11572;SDS011;5842;52.426;4.886;2023-07-30T00:00:08;30.85;;;16.23;;
11572;SDS011;5842;52.426;4.886;2023-07-30T00:02:36;23.40;;;11.35;;
11572;SDS011;5842;52.426;4.886;2023-07-30T00:05:03;21.55;;;6.03;;
11572;SDS011;5842;52.426;4.886;2023-07-30T00:07:31;22.02;;;6.60;;
11572;SDS011;5842;52.426;4.886;2023-07-30T00:09:59;25.27;;;6.43;;
11572;SDS011;5842;52.426;4.886;2023-07-30T00:12:29;30.25;;;6.82;;
11572;SDS011;5842;52.426;4.886;2023-07-30T00:14:58;38.42;;;26.25;;
11572;SDS011;5842;52.426;4.886;2023-07-30T00:17:25;24.13;;;9.10;;
11572;SDS011;5842;52.426;4.886;2023-07-30T00:19:53;22.67;;;6.68;;
11572;SDS011;5842;52.426;4.886;2023-07-30T00:22:20;24.27;;;10.20;;
11572;SDS011;5842;52.426;4.886;2023-07-30T00:24:48;24.13;;;6.72;;
11572;SDS011;5842;52.426;4.886;2023-07-30T00:27:15;24.95;;;6.78;;
11572;SDS011;5842;52.426;4.886;2023-07-30T00:29:43;22.90;;;6.38;;
11572;SDS011;5842;52.426;4.886;2023-07-30T00:32:12;22.80;;;6.32;;
11572;SDS011;5842;52.426;4.886;2023-07-30T00:34:41;23.40;;;6.40;;
11572;SDS011;5842;52.426;4.886;2023-07-30T00:37:09;23.58;;;5.75;;
11572;SDS011;5842;52.426;4.886;2023-07-30T00:39:36;19.80;;;5.57;;
11572;SDS011;5842;52.426;4.886;2023-07-30T00:42:04;24.58;;;6.18;;
11572;SDS011;5842;52.426;4.886;2023-07-30T00:44:32;19.27;;;5.75;;
11572;SDS011;5842;52.426;4.886;2023-07-30T00:47:00;23.67;;;6.37;;
11572;SDS011;5842;52.426;4.886;2023-07-30T00:49:30;23.50;;;5.57;;
11572;SDS011;5842;52.426;4.886;2023-07-30T00:51:57;19.33;;;6.10;;
11572;SDS011;5842;52.426;4.886;2023-07-30T00:54:25;24.05;;;6.35;;
11572;SDS011;5842;52.426;4.886;2023-07-30T00:56:53;19.02;;;5.70;;
11572;SDS011;5842;52.426;4.886;2023-07-30T00:59:20;25.90;;;5.97;;
11572;SDS011;5842;52.426;4.886;2023-07-30T01:01:48;24.83;;;6.32;;
11572;SDS011;5842;52.426;4.886;2023-07-30T01:04:18;23.17;;;5.63;;
11572;SDS011;5842;52.426;4.886;2023-07-30T01:06:47;21.65;;;5.93;;
11572;SDS011;5842;52.426;4.886;2023-07-30T01:09:15;21.85;;;6.47;;
11572;SDS011;5842;52.426;4.886;2023-07-30T01:11:42;24.33;;;6.38;;
11572;SDS011;5842;52.426;4.886;2023-07-30T01:14:10;23.10;;;6.10;;
11572;SDS011;5842;52.426;4.886;2023-07-30T01:16:39;25.53;;;6.10;;
11572;SDS011;5842;52.426;4.886;2023-07-30T01:19:06;20.88;;;5.63;;
11572;SDS011;5842;52.426;4.886;2023-07-30T01:21:37;21.42;;;5.97;;
11572;SDS011;5842;52.426;4.886;2023-07-30T01:24:04;23.80;;;6.25;;
11572;SDS011;5842;52.426;4.886;2023-07-30T01:26:32;22.13;;;5.22;;
11572;SDS011;5842;52.426;4.886;2023-07-30T01:29:02;24.92;;;6.28;;
11572;SDS011;5842;52.426;4.886;2023-07-30T01:31:30;24.77;;;5.53;;
11572;SDS011;5842;52.426;4.886;2023-07-30T01:34:00;24.33;;;5.47;;
11572;SDS011;5842;52.426;4.886;2023-07-30T01:36:29;22.70;;;5.45;;
11572;SDS011;5842;52.426;4.886;2023-07-30T01:38:58;20.58;;;5.30;;
11572;SDS011;5842;52.426;4.886;2023-07-30T01:41:26;17.77;;;5.27;;
11572;SDS011;5842;52.426;4.886;2023-07-30T01:43:56;22.08;;;5.15;;
11572;SDS011;5842;52.426;4.886;2023-07-30T01:46:23;21.90;;;5.38;;
11572;SDS011;5842;52.426;4.886;2023-07-30T01:48:51;20.92;;;5.50;;
11572;SDS011;5842;52.426;4.886;2023-07-30T01:51:18;21.45;;;5.40;;
11572;SDS011;5842;52.426;4.886;2023-07-30T01:53:46;22.25;;;5.57;;
11572;SDS011;5842;52.426;4.886;2023-07-30T01:56:15;23.92;;;5.50;;
11572;SDS011;5842;52.426;4.886;2023-07-30T01:58:42;23.13;;;5.43;;
11572;SDS011;5842;52.426;4.886;2023-07-30T02:01:10;19.88;;;5.03;;
11572;SDS011;5842;52.426;4.886;2023-07-30T02:03:37;18.67;;;5.50;;
11572;SDS011;5842;52.426;4.886;2023-07-30T02:06:05;24.88;;;5.18;;
11572;SDS011;5842;52.426;4.886;2023-07-30T02:08:32;20.23;;;5.15;;
11572;SDS011;5842;52.426;4.886;2023-07-30T02:10:59;19.98;;;5.20;;
11572;SDS011;5842;52.426;4.886;2023-07-30T02:13:28;18.15;;;5.30;;
11572;SDS011;5842;52.426;4.886;2023-07-30T02:15:56;22.70;;;5.75;;
11572;SDS011;5842;52.426;4.886;2023-07-30T02:18:24;22.25;;;5.43;;
11572;SDS011;5842;52.426;4.886;2023-07-30T02:20:51;18.95;;;5.22;;
11572;SDS011;5842;52.426;4.886;2023-07-30T02:23:20;17.33;;;5.00;;
11572;SDS011;5842;52.426;4.886;2023-07-30T02:25:48;15.45;;;4.60;;
11572;SDS011;5842;52.426;4.886;2023-07-30T02:28:15;18.75;;;4.95;;
11572;SDS011;5842;52.426;4.886;2023-07-30T02:30:44;16.33;;;4.78;;
11572;SDS011;5842;52.426;4.886;2023-07-30T02:33:12;15.68;;;4.57;;
11572;SDS011;5842;52.426;4.886;2023-07-30T02:35:40;17.95;;;4.75;;
11572;SDS011;5842;52.426;4.886;2023-07-30T02:38:07;18.17;;;4.75;;
11572;SDS011;5842;52.426;4.886;2023-07-30T02:40:35;21.00;;;5.40;;
11572;SDS011;5842;52.426;4.886;2023-07-30T02:43:02;21.90;;;5.05;;
11572;SDS011;5842;52.426;4.886;2023-07-30T02:45:29;16.52;;;4.78;;
11572;SDS011;5842;52.426;4.886;2023-07-30T02:47:59;18.20;;;5.38;;
11572;SDS011;5842;52.426;4.886;2023-07-30T02:50:26;21.57;;;5.30;;
11572;SDS011;5842;52.426;4.886;2023-07-30T02:52:54;19.42;;;5.00;;
11572;SDS011;5842;52.426;4.886;2023-07-30T02:55:22;21.60;;;5.65;;
11572;SDS011;5842;52.426;4.886;2023-07-30T02:57:49;20.20;;;5.10;;
11572;SDS011;5842;52.426;4.886;2023-07-30T03:00:17;19.00;;;5.23;;
11572;SDS011;5842;52.426;4.886;2023-07-30T03:02:47;19.88;;;5.00;;
11572;SDS011;5842;52.426;4.886;2023-07-30T03:05:16;20.55;;;5.03;;
11572;SDS011;5842;52.426;4.886;2023-07-30T03:07:44;18.23;;;5.07;;
11572;SDS011;5842;52.426;4.886;2023-07-30T03:10:12;14.93;;;4.90;;
11572;SDS011;5842;52.426;4.886;2023-07-30T03:12:40;17.85;;;4.63;;
11572;SDS011;5842;52.426;4.886;2023-07-30T03:15:09;16.67;;;4.63;;
11572;SDS011;5842;52.426;4.886;2023-07-30T03:17:36;17.70;;;4.95;;
11572;SDS011;5842;52.426;4.886;2023-07-30T03:20:04;18.52;;;4.18;;
11572;SDS011;5842;52.426;4.886;2023-07-30T03:22:36;14.00;;;4.30;;
11572;SDS011;5842;52.426;4.886;2023-07-30T03:25:03;15.18;;;3.97;;
11572;SDS011;5842;52.426;4.886;2023-07-30T03:27:31;14.07;;;3.97;;
11572;SDS011;5842;52.426;4.886;2023-07-30T03:29:59;7.37;;;2.90;;
11572;SDS011;5842;52.426;4.886;2023-07-30T03:32:26;7.70;;;2.90;;
11572;SDS011;5842;52.426;4.886;2023-07-30T03:34:53;8.95;;;2.78;;
11572;SDS011;5842;52.426;4.886;2023-07-30T03:37:21;9.13;;;2.80;;
11572;SDS011;5842;52.426;4.886;2023-07-30T03:39:50;7.83;;;2.77;;
11572;SDS011;5842;52.426;4.886;2023-07-30T03:42:17;8.20;;;2.60;;
11572;SDS011;5842;52.426;4.886;2023-07-30T03:44:45;7.38;;;2.50;;
11572;SDS011;5842;52.426;4.886;2023-07-30T03:47:12;7.70;;;2.50;;
11572;SDS011;5842;52.426;4.886;2023-07-30T03:49:39;7.82;;;2.58;;
11572;SDS011;5842;52.426;4.886;2023-07-30T03:52:07;10.82;;;2.92;;
11572;SDS011;5842;52.426;4.886;2023-07-30T03:54:34;7.05;;;2.72;;
11572;SDS011;5842;52.426;4.886;2023-07-30T03:57:03;7.13;;;2.63;;
11572;SDS011;5842;52.426;4.886;2023-07-30T03:59:31;8.32;;;2.67;;
11572;SDS011;5842;52.426;4.886;2023-07-30T04:01:58;8.43;;;2.47;;
11572;SDS011;5842;52.426;4.886;2023-07-30T04:04:29;8.02;;;2.53;;
11572;SDS011;5842;52.426;4.886;2023-07-30T04:06:56;8.63;;;2.60;;
11572;SDS011;5842;52.426;4.886;2023-07-30T04:09:24;5.60;;;2.10;;
11572;SDS011;5842;52.426;4.886;2023-07-30T04:11:51;9.07;;;2.70;;
11572;SDS011;5842;52.426;4.886;2023-07-30T04:14:20;8.25;;;2.50;;
11572;SDS011;5842;52.426;4.886;2023-07-30T04:16:47;7.25;;;2.47;;
11572;SDS011;5842;52.426;4.886;2023-07-30T04:19:14;8.27;;;2.80;;
11572;SDS011;5842;52.426;4.886;2023-07-30T04:21:41;8.45;;;2.60;;
11572;SDS011;5842;52.426;4.886;2023-07-30T04:24:09;8.48;;;2.70;;
11572;SDS011;5842;52.426;4.886;2023-07-30T04:26:36;9.38;;;2.80;;
11572;SDS011;5842;52.426;4.886;2023-07-30T04:29:03;7.28;;;2.60;;
11572;SDS011;5842;52.426;4.886;2023-07-30T04:31:32;10.27;;;3.10;;
11572;SDS011;5842;52.426;4.886;2023-07-30T04:33:59;9.57;;;2.70;;
11572;SDS011;5842;52.426;4.886;2023-07-30T04:36:27;10.68;;;2.63;;
11572;SDS011;5842;52.426;4.886;2023-07-30T04:38:54;8.85;;;2.67;;
11572;SDS011;5842;52.426;4.886;2023-07-30T04:41:21;10.82;;;2.72;;
11572;SDS011;5842;52.426;4.886;2023-07-30T04:43:49;9.65;;;2.90;;
11572;SDS011;5842;52.426;4.886;2023-07-30T04:46:16;10.05;;;2.88;;
11572;SDS011;5842;52.426;4.886;2023-07-30T04:48:45;8.07;;;2.83;;
11572;SDS011;5842;52.426;4.886;2023-07-30T04:51:12;8.10;;;2.67;;
11572;SDS011;5842;52.426;4.886;2023-07-30T04:53:39;12.50;;;3.40;;
11572;SDS011;5842;52.426;4.886;2023-07-30T04:56:06;11.82;;;3.00;;
11572;SDS011;5842;52.426;4.886;2023-07-30T04:58:34;9.00;;;2.90;;
11572;SDS011;5842;52.426;4.886;2023-07-30T05:01:03;9.18;;;3.08;;
11572;SDS011;5842;52.426;4.886;2023-07-30T05:03:31;9.87;;;2.97;;
11572;SDS011;5842;52.426;4.886;2023-07-30T05:06:00;8.20;;;2.85;;
11572;SDS011;5842;52.426;4.886;2023-07-30T05:08:28;8.02;;;2.95;;
11572;SDS011;5842;52.426;4.886;2023-07-30T05:10:55;8.85;;;2.97;;
11572;SDS011;5842;52.426;4.886;2023-07-30T05:13:23;10.40;;;3.05;;
11572;SDS011;5842;52.426;4.886;2023-07-30T05:15:50;8.93;;;2.80;;
11572;SDS011;5842;52.426;4.886;2023-07-30T05:18:18;9.00;;;2.80;;
11572;SDS011;5842;52.426;4.886;2023-07-30T05:20:45;9.02;;;2.97;;
11572;SDS011;5842;52.426;4.886;2023-07-30T05:23:14;10.13;;;3.03;;
11572;SDS011;5842;52.426;4.886;2023-07-30T05:25:42;8.97;;;2.93;;
11572;SDS011;5842;52.426;4.886;2023-07-30T05:28:09;11.27;;;2.70;;
11572;SDS011;5842;52.426;4.886;2023-07-30T05:30:36;9.85;;;3.00;;
11572;SDS011;5842;52.426;4.886;2023-07-30T05:33:04;11.65;;;2.70;;
11572;SDS011;5842;52.426;4.886;2023-07-30T05:35:31;11.30;;;2.95;;
11572;SDS011;5842;52.426;4.886;2023-07-30T05:37:59;9.20;;;2.77;;
11572;SDS011;5842;52.426;4.886;2023-07-30T05:40:30;10.13;;;3.13;;
11572;SDS011;5842;52.426;4.886;2023-07-30T05:42:57;8.38;;;2.65;;
11572;SDS011;5842;52.426;4.886;2023-07-30T05:47:52;10.65;;;3.00;;
11572;SDS011;5842;52.426;4.886;2023-07-30T05:50:20;11.02;;;3.20;;
11572;SDS011;5842;52.426;4.886;2023-07-30T05:52:47;11.13;;;2.85;;
11572;SDS011;5842;52.426;4.886;2023-07-30T05:55:14;9.75;;;3.00;;
11572;SDS011;5842;52.426;4.886;2023-07-30T05:57:43;9.07;;;2.67;;
11572;SDS011;5842;52.426;4.886;2023-07-30T06:00:11;9.27;;;3.13;;
11572;SDS011;5842;52.426;4.886;2023-07-30T06:02:38;8.05;;;2.53;;
11572;SDS011;5842;52.426;4.886;2023-07-30T06:05:05;8.55;;;2.65;;
11572;SDS011;5842;52.426;4.886;2023-07-30T06:07:33;9.63;;;2.63;;
11572;SDS011;5842;52.426;4.886;2023-07-30T06:10:00;10.43;;;2.70;;
11572;SDS011;5842;52.426;4.886;2023-07-30T06:12:27;8.40;;;2.60;;
11572;SDS011;5842;52.426;4.886;2023-07-30T06:14:56;7.82;;;2.40;;
11572;SDS011;5842;52.426;4.886;2023-07-30T06:17:23;8.20;;;2.55;;
11572;SDS011;5842;52.426;4.886;2023-07-30T06:19:51;8.68;;;2.30;;
11572;SDS011;5842;52.426;4.886;2023-07-30T06:22:18;8.40;;;2.67;;
11572;SDS011;5842;52.426;4.886;2023-07-30T06:24:45;9.00;;;2.60;;
11572;SDS011;5842;52.426;4.886;2023-07-30T06:27:13;8.35;;;2.60;;
11572;SDS011;5842;52.426;4.886;2023-07-30T06:29:40;8.23;;;2.50;;
11572;SDS011;5842;52.426;4.886;2023-07-30T06:32:09;8.10;;;2.70;;
11572;SDS011;5842;52.426;4.886;2023-07-30T06:39:34;9.00;;;2.53;;
11572;SDS011;5842;52.426;4.886;2023-07-30T06:42:01;7.07;;;2.28;;
11572;SDS011;5842;52.426;4.886;2023-07-30T06:44:28;8.75;;;2.50;;
11572;SDS011;5842;52.426;4.886;2023-07-30T06:46:56;8.75;;;2.35;;
11572;SDS011;5842;52.426;4.886;2023-07-30T06:49:24;9.95;;;2.78;;
11572;SDS011;5842;52.426;4.886;2023-07-30T06:51:52;10.30;;;2.70;;
11572;SDS011;5842;52.426;4.886;2023-07-30T06:54:19;10.32;;;3.08;;
11572;SDS011;5842;52.426;4.886;2023-07-30T06:56:47;8.77;;;2.33;;
11572;SDS011;5842;52.426;4.886;2023-07-30T06:59:14;9.48;;;2.50;;
11572;SDS011;5842;52.426;4.886;2023-07-30T07:01:41;6.90;;;2.47;;
11572;SDS011;5842;52.426;4.886;2023-07-30T07:04:09;9.40;;;2.35;;
11572;SDS011;5842;52.426;4.886;2023-07-30T07:06:37;8.63;;;2.45;;
11572;SDS011;5842;52.426;4.886;2023-07-30T07:09:05;7.03;;;2.50;;
11572;SDS011;5842;52.426;4.886;2023-07-30T07:11:32;10.27;;;2.73;;
11572;SDS011;5842;52.426;4.886;2023-07-30T07:13:59;8.25;;;2.50;;
11572;SDS011;5842;52.426;4.886;2023-07-30T07:16:26;8.35;;;2.55;;
11572;SDS011;5842;52.426;4.886;2023-07-30T07:18:54;8.73;;;2.55;;
11572;SDS011;5842;52.426;4.886;2023-07-30T07:21:21;9.18;;;2.70;;
11572;SDS011;5842;52.426;4.886;2023-07-30T07:23:50;10.15;;;2.83;;
11572;SDS011;5842;52.426;4.886;2023-07-30T07:44:23;11.60;;;3.00;;
11572;SDS011;5842;52.426;4.886;2023-07-30T07:46:50;10.88;;;2.80;;
11572;SDS011;5842;52.426;4.886;2023-07-30T07:59:06;10.25;;;2.90;;
11572;SDS011;5842;52.426;4.886;2023-07-30T08:01:38;11.23;;;2.70;;
11572;SDS011;5842;52.426;4.886;2023-07-30T08:04:05;12.07;;;2.80;;
11572;SDS011;5842;52.426;4.886;2023-07-30T08:06:32;8.65;;;2.40;;
11572;SDS011;5842;52.426;4.886;2023-07-30T08:09:00;11.77;;;2.67;;
11572;SDS011;5842;52.426;4.886;2023-07-30T08:11:27;11.95;;;2.70;;
11572;SDS011;5842;52.426;4.886;2023-07-30T08:13:54;12.52;;;2.67;;
11572;SDS011;5842;52.426;4.886;2023-07-30T08:16:22;10.82;;;2.97;;
11572;SDS011;5842;52.426;4.886;2023-07-30T08:18:51;6.78;;;2.53;;
11572;SDS011;5842;52.426;4.886;2023-07-30T08:21:20;10.13;;;3.10;;
11572;SDS011;5842;52.426;4.886;2023-07-30T08:23:47;10.55;;;4.07;;
11572;SDS011;5842;52.426;4.886;2023-07-30T08:26:14;8.00;;;2.50;;
11572;SDS011;5842;52.426;4.886;2023-07-30T08:28:41;7.05;;;2.40;;
11572;SDS011;5842;52.426;4.886;2023-07-30T10:36:18;11.97;;;2.90;;
11572;SDS011;5842;52.426;4.886;2023-07-30T10:41:13;11.00;;;2.93;;
11572;SDS011;5842;52.426;4.886;2023-07-30T11:00:58;7.57;;;2.67;;
11572;SDS011;5842;52.426;4.886;2023-07-30T12:36:47;6.88;;;2.10;;
11572;SDS011;5842;52.426;4.886;2023-07-30T12:39:15;7.57;;;1.93;;
11572;SDS011;5842;52.426;4.886;2023-07-30T12:41:42;10.03;;;2.73;;
11572;SDS011;5842;52.426;4.886;2023-07-30T12:44:09;5.10;;;1.90;;
11572;SDS011;5842;52.426;4.886;2023-07-30T12:46:37;9.30;;;2.20;;
11572;SDS011;5842;52.426;4.886;2023-07-30T12:49:04;8.05;;;2.67;;
11572;SDS011;5842;52.426;4.886;2023-07-30T12:51:32;8.80;;;2.65;;
11572;SDS011;5842;52.426;4.886;2023-07-30T12:54:01;8.30;;;2.35;;
11572;SDS011;5842;52.426;4.886;2023-07-30T12:56:29;9.35;;;2.50;;
11572;SDS011;5842;52.426;4.886;2023-07-30T12:58:58;7.20;;;2.03;;
11572;SDS011;5842;52.426;4.886;2023-07-30T13:01:25;6.90;;;2.03;;
11572;SDS011;5842;52.426;4.886;2023-07-30T13:03:52;5.90;;;2.00;;
11572;SDS011;5842;52.426;4.886;2023-07-30T13:06:20;9.20;;;2.10;;
11572;SDS011;5842;52.426;4.886;2023-07-30T13:08:47;5.53;;;1.90;;
11572;SDS011;5842;52.426;4.886;2023-07-30T13:11:17;7.00;;;2.10;;
11572;SDS011;5842;52.426;4.886;2023-07-30T13:13:45;6.03;;;1.67;;
11572;SDS011;5842;52.426;4.886;2023-07-30T13:16:12;6.63;;;1.83;;
11572;SDS011;5842;52.426;4.886;2023-07-30T13:18:40;6.50;;;1.80;;
11572;SDS011;5842;52.426;4.886;2023-07-30T13:21:07;8.43;;;2.10;;
11572;SDS011;5842;52.426;4.886;2023-07-30T13:23:35;4.27;;;1.70;;
11572;SDS011;5842;52.426;4.886;2023-07-30T13:26:05;11.25;;;9.52;;
11572;SDS011;5842;52.426;4.886;2023-07-30T13:28:34;6.45;;;2.22;;
11572;SDS011;5842;52.426;4.886;2023-07-30T13:31:02;9.75;;;2.28;;
11572;SDS011;5842;52.426;4.886;2023-07-30T13:33:29;9.43;;;2.35;;
11572;SDS011;5842;52.426;4.886;2023-07-30T13:35:56;6.20;;;2.20;;
11572;SDS011;5842;52.426;4.886;2023-07-30T13:38:24;6.15;;;2.33;;
11572;SDS011;5842;52.426;4.886;2023-07-30T13:40:52;7.93;;;2.20;;
11572;SDS011;5842;52.426;4.886;2023-07-30T13:43:20;8.00;;;2.25;;
11572;SDS011;5842;52.426;4.886;2023-07-30T13:45:49;9.00;;;2.10;;
11572;SDS011;5842;52.426;4.886;2023-07-30T13:48:19;6.35;;;2.20;;
11572;SDS011;5842;52.426;4.886;2023-07-30T13:50:47;6.90;;;2.13;;
11572;SDS011;5842;52.426;4.886;2023-07-30T13:55:42;9.17;;;2.30;;
11572;SDS011;5842;52.426;4.886;2023-07-30T13:58:09;8.45;;;2.42;;
11572;SDS011;5842;52.426;4.886;2023-07-30T14:00:36;7.90;;;2.25;;
11572;SDS011;5842;52.426;4.886;2023-07-30T14:03:05;7.97;;;2.20;;
11572;SDS011;5842;52.426;4.886;2023-07-30T14:05:33;6.35;;;2.00;;
11572;SDS011;5842;52.426;4.886;2023-07-30T14:08:00;8.03;;;2.30;;
11572;SDS011;5842;52.426;4.886;2023-07-30T14:10:27;8.38;;;2.50;;
11572;SDS011;5842;52.426;4.886;2023-07-30T14:12:54;7.90;;;2.38;;
11572;SDS011;5842;52.426;4.886;2023-07-30T14:15:22;9.15;;;2.70;;
11572;SDS011;5842;52.426;4.886;2023-07-30T14:17:49;9.80;;;2.90;;
11572;SDS011;5842;52.426;4.886;2023-07-30T14:20:19;11.40;;;4.13;;
11572;SDS011;5842;52.426;4.886;2023-07-30T14:22:46;10.75;;;3.13;;
11572;SDS011;5842;52.426;4.886;2023-07-30T14:25:16;8.80;;;2.85;;
11572;SDS011;5842;52.426;4.886;2023-07-30T14:27:44;8.65;;;2.88;;
11572;SDS011;5842;52.426;4.886;2023-07-30T14:30:11;9.38;;;2.78;;
11572;SDS011;5842;52.426;4.886;2023-07-30T14:32:38;10.48;;;2.58;;
11572;SDS011;5842;52.426;4.886;2023-07-30T14:35:06;11.25;;;3.00;;
11572;SDS011;5842;52.426;4.886;2023-07-30T14:37:35;10.20;;;2.53;;
11572;SDS011;5842;52.426;4.886;2023-07-30T14:40:02;8.80;;;2.88;;
11572;SDS011;5842;52.426;4.886;2023-07-30T14:42:29;8.98;;;2.78;;
11572;SDS011;5842;52.426;4.886;2023-07-30T14:44:57;12.90;;;3.38;;
11572;SDS011;5842;52.426;4.886;2023-07-30T14:47:24;10.40;;;3.20;;
11572;SDS011;5842;52.426;4.886;2023-07-30T14:49:51;10.00;;;3.38;;
11572;SDS011;5842;52.426;4.886;2023-07-30T14:52:19;10.27;;;3.00;;
11572;SDS011;5842;52.426;4.886;2023-07-30T14:54:47;11.25;;;3.40;;
11572;SDS011;5842;52.426;4.886;2023-07-30T14:57:15;10.82;;;3.70;;
11572;SDS011;5842;52.426;4.886;2023-07-30T15:02:10;9.98;;;3.00;;
11572;SDS011;5842;52.426;4.886;2023-07-30T15:04:38;9.05;;;3.13;;
11572;SDS011;5842;52.426;4.886;2023-07-30T15:07:06;10.60;;;3.35;;
11572;SDS011;5842;52.426;4.886;2023-07-30T15:09:35;13.20;;;3.95;;
11572;SDS011;5842;52.426;4.886;2023-07-30T15:12:05;11.52;;;3.72;;
11572;SDS011;5842;52.426;4.886;2023-07-30T15:14:34;14.57;;;4.10;;
11572;SDS011;5842;52.426;4.886;2023-07-30T15:17:01;15.10;;;4.20;;
11572;SDS011;5842;52.426;4.886;2023-07-30T15:19:29;13.18;;;4.40;;
11572;SDS011;5842;52.426;4.886;2023-07-30T15:21:56;11.93;;;3.95;;
11572;SDS011;5842;52.426;4.886;2023-07-30T15:24:23;12.27;;;4.40;;
11572;SDS011;5842;52.426;4.886;2023-07-30T15:26:50;12.97;;;4.30;;
11572;SDS011;5842;52.426;4.886;2023-07-30T15:29:19;14.73;;;4.25;;
11572;SDS011;5842;52.426;4.886;2023-07-30T15:31:49;15.60;;;4.43;;
11572;SDS011;5842;52.426;4.886;2023-07-30T15:34:16;13.80;;;4.60;;
11572;SDS011;5842;52.426;4.886;2023-07-30T15:36:43;14.10;;;4.07;;
11572;SDS011;5842;52.426;4.886;2023-07-30T15:39:11;14.15;;;4.20;;
11572;SDS011;5842;52.426;4.886;2023-07-30T15:41:38;15.07;;;4.53;;
11572;SDS011;5842;52.426;4.886;2023-07-30T15:44:05;16.40;;;4.65;;
11572;SDS011;5842;52.426;4.886;2023-07-30T15:46:34;14.90;;;5.00;;
11572;SDS011;5842;52.426;4.886;2023-07-30T15:49:02;16.67;;;4.75;;
11572;SDS011;5842;52.426;4.886;2023-07-30T15:51:29;14.10;;;4.80;;
11572;SDS011;5842;52.426;4.886;2023-07-30T15:53:56;15.98;;;4.60;;
11572;SDS011;5842;52.426;4.886;2023-07-30T15:56:24;19.40;;;5.38;;
11572;SDS011;5842;52.426;4.886;2023-07-30T15:58:51;19.45;;;5.18;;
11572;SDS011;5842;52.426;4.886;2023-07-30T16:01:18;17.05;;;4.90;;
11572;SDS011;5842;52.426;4.886;2023-07-30T16:08:42;16.38;;;5.25;;
11572;SDS011;5842;52.426;4.886;2023-07-30T16:11:10;14.90;;;5.18;;
11572;SDS011;5842;52.426;4.886;2023-07-30T16:13:37;14.80;;;5.10;;
11572;SDS011;5842;52.426;4.886;2023-07-30T16:16:08;17.00;;;5.10;;
11572;SDS011;5842;52.426;4.886;2023-07-30T16:18:37;19.77;;;5.83;;
11572;SDS011;5842;52.426;4.886;2023-07-30T16:21:06;19.10;;;5.57;;
11572;SDS011;5842;52.426;4.886;2023-07-30T16:23:33;19.60;;;5.60;;
11572;SDS011;5842;52.426;4.886;2023-07-30T16:26:03;20.00;;;5.80;;
11572;SDS011;5842;52.426;4.886;2023-07-30T16:28:31;20.70;;;5.85;;
11572;SDS011;5842;52.426;4.886;2023-07-30T16:30:59;17.75;;;5.15;;
11572;SDS011;5842;52.426;4.886;2023-07-30T16:33:27;19.73;;;5.40;;
11572;SDS011;5842;52.426;4.886;2023-07-30T16:35:55;20.13;;;5.40;;
11572;SDS011;5842;52.426;4.886;2023-07-30T16:38:22;20.15;;;5.63;;
11572;SDS011;5842;52.426;4.886;2023-07-30T16:40:51;18.00;;;5.45;;
11572;SDS011;5842;52.426;4.886;2023-07-30T16:43:20;18.10;;;5.50;;
11572;SDS011;5842;52.426;4.886;2023-07-30T16:45:47;20.02;;;5.22;;
11572;SDS011;5842;52.426;4.886;2023-07-30T16:48:15;17.70;;;4.93;;
11572;SDS011;5842;52.426;4.886;2023-07-30T16:50:44;17.60;;;5.60;;
11572;SDS011;5842;52.426;4.886;2023-07-30T16:53:11;15.13;;;4.38;;
11572;SDS011;5842;52.426;4.886;2023-07-30T16:55:39;12.15;;;3.70;;
11572;SDS011;5842;52.426;4.886;2023-07-30T16:58:07;12.00;;;3.40;;
11572;SDS011;5842;52.426;4.886;2023-07-30T17:00:36;10.13;;;3.10;;
11572;SDS011;5842;52.426;4.886;2023-07-30T17:03:13;12.05;;;3.20;;
11572;SDS011;5842;52.426;4.886;2023-07-30T17:05:46;9.55;;;3.50;;
11572;SDS011;5842;52.426;4.886;2023-07-30T17:08:29;8.98;;;3.15;;
11572;SDS011;5842;52.426;4.886;2023-07-30T17:11:06;12.15;;;3.20;;
11572;SDS011;5842;52.426;4.886;2023-07-30T17:13:39;8.55;;;3.00;;
11572;SDS011;5842;52.426;4.886;2023-07-30T17:16:16;9.40;;;3.38;;
11572;SDS011;5842;52.426;4.886;2023-07-30T17:18:49;9.50;;;3.35;;
11572;SDS011;5842;52.426;4.886;2023-07-30T17:21:23;10.47;;;3.70;;
11572;SDS011;5842;52.426;4.886;2023-07-30T17:23:57;11.40;;;3.92;;
11572;SDS011;5842;52.426;4.886;2023-07-30T17:26:30;11.63;;;3.50;;
11572;SDS011;5842;52.426;4.886;2023-07-30T17:29:04;9.97;;;3.57;;
11572;SDS011;5842;52.426;4.886;2023-07-30T17:31:45;13.77;;;3.88;;
11572;SDS011;5842;52.426;4.886;2023-07-30T17:34:20;10.65;;;3.40;;
11572;SDS011;5842;52.426;4.886;2023-07-30T17:36:54;11.37;;;3.57;;
11572;SDS011;5842;52.426;4.886;2023-07-30T17:39:27;9.85;;;3.40;;
11572;SDS011;5842;52.426;4.886;2023-07-30T17:42:01;10.90;;;3.40;;
11572;SDS011;5842;52.426;4.886;2023-07-30T17:44:34;7.00;;;2.60;;
11572;SDS011;5842;52.426;4.886;2023-07-30T17:47:11;8.90;;;3.10;;
11572;SDS011;5842;52.426;4.886;2023-07-30T17:49:44;6.47;;;3.35;;
11572;SDS011;5842;52.426;4.886;2023-07-30T17:52:17;8.10;;;2.70;;
11572;SDS011;5842;52.426;4.886;2023-07-30T17:54:51;8.07;;;3.00;;
11572;SDS011;5842;52.426;4.886;2023-07-30T17:57:28;7.95;;;2.40;;
11572;SDS011;5842;52.426;4.886;2023-07-30T18:00:01;6.37;;;2.50;;
11572;SDS011;5842;52.426;4.886;2023-07-30T18:02:38;7.32;;;2.60;;
11572;SDS011;5842;52.426;4.886;2023-07-30T18:05:10;6.57;;;2.80;;
11572;SDS011;5842;52.426;4.886;2023-07-30T18:07:44;7.83;;;2.67;;
11572;SDS011;5842;52.426;4.886;2023-07-30T18:10:18;8.15;;;2.67;;
11572;SDS011;5842;52.426;4.886;2023-07-30T18:12:51;6.55;;;2.63;;
11572;SDS011;5842;52.426;4.886;2023-07-30T18:15:25;6.63;;;2.30;;
11572;SDS011;5842;52.426;4.886;2023-07-30T18:18:03;7.80;;;2.70;;
11572;SDS011;5842;52.426;4.886;2023-07-30T18:20:36;7.35;;;2.50;;
11572;SDS011;5842;52.426;4.886;2023-07-30T18:23:10;5.33;;;2.50;;
11572;SDS011;5842;52.426;4.886;2023-07-30T18:25:46;6.47;;;2.72;;
11572;SDS011;5842;52.426;4.886;2023-07-30T18:28:20;5.70;;;2.90;;
11572;SDS011;5842;52.426;4.886;2023-07-30T18:30:54;6.60;;;2.90;;
11572;SDS011;5842;52.426;4.886;2023-07-30T18:33:29;6.43;;;2.90;;
11572;SDS011;5842;52.426;4.886;2023-07-30T18:36:03;6.80;;;3.20;;
11572;SDS011;5842;52.426;4.886;2023-07-30T18:38:36;7.60;;;3.10;;
11572;SDS011;5842;52.426;4.886;2023-07-30T18:41:10;7.82;;;3.42;;
11572;SDS011;5842;52.426;4.886;2023-07-30T18:43:44;7.88;;;3.30;;
11572;SDS011;5842;52.426;4.886;2023-07-30T18:46:17;8.70;;;3.28;;
11572;SDS011;5842;52.426;4.886;2023-07-30T18:48:54;6.30;;;3.03;;
11572;SDS011;5842;52.426;4.886;2023-07-30T18:51:28;6.15;;;3.05;;
11572;SDS011;5842;52.426;4.886;2023-07-30T18:54:01;8.32;;;3.47;;
11572;SDS011;5842;52.426;4.886;2023-07-30T18:56:34;7.32;;;3.50;;
11572;SDS011;5842;52.426;4.886;2023-07-30T18:59:10;10.57;;;3.88;;
11572;SDS011;5842;52.426;4.886;2023-07-30T19:01:44;5.40;;;3.30;;
11572;SDS011;5842;52.426;4.886;2023-07-30T19:04:21;7.07;;;3.37;;
11572;SDS011;5842;52.426;4.886;2023-07-30T19:06:54;7.18;;;3.65;;
11572;SDS011;5842;52.426;4.886;2023-07-30T19:09:28;5.70;;;3.08;;
11572;SDS011;5842;52.426;4.886;2023-07-30T19:12:01;7.70;;;3.17;;
11572;SDS011;5842;52.426;4.886;2023-07-30T19:14:36;5.80;;;3.28;;
11572;SDS011;5842;52.426;4.886;2023-07-30T19:17:10;6.25;;;2.97;;
11572;SDS011;5842;52.426;4.886;2023-07-30T19:19:55;6.40;;;3.13;;
11572;SDS011;5842;52.426;4.886;2023-07-30T19:22:29;5.07;;;2.80;;
11572;SDS011;5842;52.426;4.886;2023-07-30T19:25:03;7.38;;;2.95;;
11572;SDS011;5842;52.426;4.886;2023-07-30T19:27:38;5.32;;;2.83;;
11572;SDS011;5842;52.426;4.886;2023-07-30T19:30:12;5.87;;;2.70;;
11572;SDS011;5842;52.426;4.886;2023-07-30T19:32:45;4.78;;;2.60;;
11572;SDS011;5842;52.426;4.886;2023-07-30T19:35:22;4.90;;;2.72;;
11572;SDS011;5842;52.426;4.886;2023-07-30T19:37:56;6.15;;;2.92;;
11572;SDS011;5842;52.426;4.886;2023-07-30T19:40:34;7.57;;;3.10;;
11572;SDS011;5842;52.426;4.886;2023-07-30T19:43:08;8.07;;;2.90;;
11572;SDS011;5842;52.426;4.886;2023-07-30T19:45:48;7.65;;;2.78;;
11572;SDS011;5842;52.426;4.886;2023-07-30T19:48:21;9.07;;;3.05;;